Makah AFB, Washington
Current Conditions -  °F | °C
As of 9:22 AM on Wednesday 26 Nov 2014 (Local Time) from KUIL Reporting Station
Haze Haze  
Wind Chill: 54°   Ceiling: 300
Heat Index: 54°   Visibility: 3mi
Dew Point: 54°   Wind: 10mph
Humidity: 100%   Direction: 190°S
Pressure: 30.07"   Gusts: NA
Location:  48.3685°N, 124.623°W
Report Text: KUIL 261722Z AUTO 19009KT 3SM BR OVC003 12/12 A3007 RMK AO2 RAE22 P0001 T01220122
Loading
Personal Weather Stations






























Interactive Weather Map New forecast layout! Learn more

10-Day Weather Forecast

Advertisements
Track Severe Weather on mobile